sensor_id;sensor_type;location;lat;lon;timestamp;P1;durP1;ratioP1;P2;durP2;ratioP2
11681;SDS011;5897;42.640;23.310;2022-11-24T00:01:12;13.85;;;8.60;;
11681;SDS011;5897;42.640;23.310;2022-11-24T00:03:42;13.27;;;7.45;;
11681;SDS011;5897;42.640;23.310;2022-11-24T00:06:10;11.25;;;6.63;;
11681;SDS011;5897;42.640;23.310;2022-11-24T00:08:38;10.60;;;6.50;;
11681;SDS011;5897;42.640;23.310;2022-11-24T00:11:08;14.65;;;9.02;;
11681;SDS011;5897;42.640;23.310;2022-11-24T00:13:37;10.15;;;7.50;;
11681;SDS011;5897;42.640;23.310;2022-11-24T00:16:08;9.57;;;6.50;;
11681;SDS011;5897;42.640;23.310;2022-11-24T00:18:36;14.10;;;7.18;;
11681;SDS011;5897;42.640;23.310;2022-11-24T00:21:05;11.77;;;8.90;;
11681;SDS011;5897;42.640;23.310;2022-11-24T00:23:32;12.20;;;7.53;;
11681;SDS011;5897;42.640;23.310;2022-11-24T00:26:02;7.45;;;4.10;;
11681;SDS011;5897;42.640;23.310;2022-11-24T00:28:30;8.10;;;5.90;;
11681;SDS011;5897;42.640;23.310;2022-11-24T00:30:57;7.40;;;4.63;;
11681;SDS011;5897;42.640;23.310;2022-11-24T00:33:24;7.53;;;4.35;;
11681;SDS011;5897;42.640;23.310;2022-11-24T00:35:54;7.35;;;4.80;;
11681;SDS011;5897;42.640;23.310;2022-11-24T00:38:23;7.03;;;4.80;;
11681;SDS011;5897;42.640;23.310;2022-11-24T00:40:50;8.30;;;4.20;;
11681;SDS011;5897;42.640;23.310;2022-11-24T00:43:17;9.77;;;3.70;;
11681;SDS011;5897;42.640;23.310;2022-11-24T00:45:44;7.05;;;4.35;;
11681;SDS011;5897;42.640;23.310;2022-11-24T00:48:11;6.60;;;4.13;;
11681;SDS011;5897;42.640;23.310;2022-11-24T00:50:38;7.90;;;4.10;;
11681;SDS011;5897;42.640;23.310;2022-11-24T00:53:04;4.88;;;4.07;;
11681;SDS011;5897;42.640;23.310;2022-11-24T00:55:33;9.07;;;5.35;;
11681;SDS011;5897;42.640;23.310;2022-11-24T00:57:59;7.43;;;4.20;;
11681;SDS011;5897;42.640;23.310;2022-11-24T01:00:26;7.43;;;4.60;;
11681;SDS011;5897;42.640;23.310;2022-11-24T01:02:53;7.18;;;3.60;;
11681;SDS011;5897;42.640;23.310;2022-11-24T01:05:20;6.50;;;3.90;;
11681;SDS011;5897;42.640;23.310;2022-11-24T01:07:47;5.50;;;4.20;;
11681;SDS011;5897;42.640;23.310;2022-11-24T01:10:13;5.72;;;5.13;;
11681;SDS011;5897;42.640;23.310;2022-11-24T01:12:41;7.13;;;4.93;;
11681;SDS011;5897;42.640;23.310;2022-11-24T01:15:08;7.03;;;4.70;;
11681;SDS011;5897;42.640;23.310;2022-11-24T01:17:35;7.10;;;4.50;;
11681;SDS011;5897;42.640;23.310;2022-11-24T01:20:02;5.82;;;4.63;;
11681;SDS011;5897;42.640;23.310;2022-11-24T01:22:29;7.00;;;4.97;;
11681;SDS011;5897;42.640;23.310;2022-11-24T01:24:57;7.03;;;3.88;;
11681;SDS011;5897;42.640;23.310;2022-11-24T01:27:23;6.40;;;4.95;;
11681;SDS011;5897;42.640;23.310;2022-11-24T01:29:52;6.45;;;4.88;;
11681;SDS011;5897;42.640;23.310;2022-11-24T01:32:18;5.90;;;4.15;;
11681;SDS011;5897;42.640;23.310;2022-11-24T01:34:45;6.15;;;5.00;;
11681;SDS011;5897;42.640;23.310;2022-11-24T01:37:12;4.45;;;3.25;;
11681;SDS011;5897;42.640;23.310;2022-11-24T01:39:38;5.30;;;3.17;;
11681;SDS011;5897;42.640;23.310;2022-11-24T01:42:05;4.35;;;3.35;;
11681;SDS011;5897;42.640;23.310;2022-11-24T01:44:32;9.20;;;3.50;;
11681;SDS011;5897;42.640;23.310;2022-11-24T01:47:02;6.03;;;3.50;;
11681;SDS011;5897;42.640;23.310;2022-11-24T01:49:35;4.50;;;3.20;;
11681;SDS011;5897;42.640;23.310;2022-11-24T01:52:05;6.10;;;3.63;;
11681;SDS011;5897;42.640;23.310;2022-11-24T01:54:37;5.50;;;3.10;;
11681;SDS011;5897;42.640;23.310;2022-11-24T01:57:08;4.10;;;2.92;;
11681;SDS011;5897;42.640;23.310;2022-11-24T01:59:38;4.82;;;3.00;;
11681;SDS011;5897;42.640;23.310;2022-11-24T02:02:06;3.63;;;3.10;;
11681;SDS011;5897;42.640;23.310;2022-11-24T02:04:34;5.88;;;3.22;;
11681;SDS011;5897;42.640;23.310;2022-11-24T02:07:01;5.80;;;3.03;;
11681;SDS011;5897;42.640;23.310;2022-11-24T02:09:31;6.53;;;3.30;;
11681;SDS011;5897;42.640;23.310;2022-11-24T02:12:02;5.90;;;3.50;;
11681;SDS011;5897;42.640;23.310;2022-11-24T02:14:31;5.75;;;3.33;;
11681;SDS011;5897;42.640;23.310;2022-11-24T02:17:00;5.45;;;3.53;;
11681;SDS011;5897;42.640;23.310;2022-11-24T02:19:31;6.13;;;3.70;;
11681;SDS011;5897;42.640;23.310;2022-11-24T02:22:07;4.93;;;3.45;;
11681;SDS011;5897;42.640;23.310;2022-11-24T02:24:40;6.65;;;3.60;;
11681;SDS011;5897;42.640;23.310;2022-11-24T02:27:13;5.20;;;3.55;;
11681;SDS011;5897;42.640;23.310;2022-11-24T02:29:40;5.50;;;3.67;;
11681;SDS011;5897;42.640;23.310;2022-11-24T02:32:08;5.43;;;4.05;;
11681;SDS011;5897;42.640;23.310;2022-11-24T02:34:36;6.35;;;3.88;;
11681;SDS011;5897;42.640;23.310;2022-11-24T02:37:03;5.90;;;3.60;;
11681;SDS011;5897;42.640;23.310;2022-11-24T02:39:30;6.18;;;3.70;;
11681;SDS011;5897;42.640;23.310;2022-11-24T02:41:59;5.45;;;3.67;;
11681;SDS011;5897;42.640;23.310;2022-11-24T02:44:31;5.70;;;3.60;;
11681;SDS011;5897;42.640;23.310;2022-11-24T02:47:01;9.82;;;4.60;;
11681;SDS011;5897;42.640;23.310;2022-11-24T02:49:29;11.82;;;5.18;;
11681;SDS011;5897;42.640;23.310;2022-11-24T02:51:56;9.77;;;4.60;;
11681;SDS011;5897;42.640;23.310;2022-11-24T02:54:23;7.47;;;4.53;;
11681;SDS011;5897;42.640;23.310;2022-11-24T02:56:50;7.50;;;4.32;;
11681;SDS011;5897;42.640;23.310;2022-11-24T02:59:17;5.20;;;3.15;;
11681;SDS011;5897;42.640;23.310;2022-11-24T03:01:45;5.75;;;3.10;;
11681;SDS011;5897;42.640;23.310;2022-11-24T03:04:12;3.92;;;3.30;;
11681;SDS011;5897;42.640;23.310;2022-11-24T03:06:39;4.55;;;3.53;;
11681;SDS011;5897;42.640;23.310;2022-11-24T03:09:07;6.57;;;3.80;;
11681;SDS011;5897;42.640;23.310;2022-11-24T03:11:34;6.70;;;3.80;;
11681;SDS011;5897;42.640;23.310;2022-11-24T03:14:01;7.55;;;4.47;;
11681;SDS011;5897;42.640;23.310;2022-11-24T03:16:27;8.00;;;4.20;;
11681;SDS011;5897;42.640;23.310;2022-11-24T03:18:55;6.53;;;3.85;;
11681;SDS011;5897;42.640;23.310;2022-11-24T03:21:22;7.07;;;3.90;;
11681;SDS011;5897;42.640;23.310;2022-11-24T03:23:49;7.13;;;3.60;;
11681;SDS011;5897;42.640;23.310;2022-11-24T03:26:17;6.28;;;4.13;;
11681;SDS011;5897;42.640;23.310;2022-11-24T03:28:45;6.65;;;4.22;;
11681;SDS011;5897;42.640;23.310;2022-11-24T03:31:12;7.95;;;3.80;;
11681;SDS011;5897;42.640;23.310;2022-11-24T03:33:39;5.97;;;3.80;;
11681;SDS011;5897;42.640;23.310;2022-11-24T03:36:07;4.93;;;3.50;;
11681;SDS011;5897;42.640;23.310;2022-11-24T03:38:34;5.93;;;4.18;;
11681;SDS011;5897;42.640;23.310;2022-11-24T03:41:01;5.95;;;3.72;;
11681;SDS011;5897;42.640;23.310;2022-11-24T03:43:28;5.22;;;3.95;;
11681;SDS011;5897;42.640;23.310;2022-11-24T03:45:55;5.50;;;4.00;;
11681;SDS011;5897;42.640;23.310;2022-11-24T03:48:21;8.93;;;4.05;;
11681;SDS011;5897;42.640;23.310;2022-11-24T03:50:52;4.65;;;3.95;;
11681;SDS011;5897;42.640;23.310;2022-11-24T03:53:21;5.28;;;4.03;;
11681;SDS011;5897;42.640;23.310;2022-11-24T03:55:49;6.07;;;4.40;;
11681;SDS011;5897;42.640;23.310;2022-11-24T03:58:16;5.60;;;4.35;;
11681;SDS011;5897;42.640;23.310;2022-11-24T04:00:43;6.07;;;4.93;;
11681;SDS011;5897;42.640;23.310;2022-11-24T04:03:10;7.10;;;4.82;;
11681;SDS011;5897;42.640;23.310;2022-11-24T04:05:37;8.75;;;5.68;;
11681;SDS011;5897;42.640;23.310;2022-11-24T04:08:04;6.00;;;5.00;;
11681;SDS011;5897;42.640;23.310;2022-11-24T04:10:33;8.13;;;5.57;;
11681;SDS011;5897;42.640;23.310;2022-11-24T04:13:01;7.65;;;5.65;;
11681;SDS011;5897;42.640;23.310;2022-11-24T04:15:27;7.10;;;5.10;;
11681;SDS011;5897;42.640;23.310;2022-11-24T04:17:54;7.72;;;4.88;;
11681;SDS011;5897;42.640;23.310;2022-11-24T04:20:21;7.35;;;5.47;;
11681;SDS011;5897;42.640;23.310;2022-11-24T04:22:48;8.15;;;5.78;;
11681;SDS011;5897;42.640;23.310;2022-11-24T04:25:16;12.05;;;8.60;;
11681;SDS011;5897;42.640;23.310;2022-11-24T04:27:44;9.70;;;7.47;;
11681;SDS011;5897;42.640;23.310;2022-11-24T04:30:16;12.18;;;7.50;;
11681;SDS011;5897;42.640;23.310;2022-11-24T04:32:45;9.70;;;6.47;;
11681;SDS011;5897;42.640;23.310;2022-11-24T04:35:12;9.40;;;6.53;;
11681;SDS011;5897;42.640;23.310;2022-11-24T04:37:39;11.98;;;6.90;;
11681;SDS011;5897;42.640;23.310;2022-11-24T04:40:06;9.90;;;7.65;;
11681;SDS011;5897;42.640;23.310;2022-11-24T04:42:35;13.13;;;8.50;;
11681;SDS011;5897;42.640;23.310;2022-11-24T04:45:04;10.93;;;7.10;;
11681;SDS011;5897;42.640;23.310;2022-11-24T04:47:32;12.20;;;7.80;;
11681;SDS011;5897;42.640;23.310;2022-11-24T04:49:59;10.13;;;7.55;;
11681;SDS011;5897;42.640;23.310;2022-11-24T04:52:26;11.20;;;8.20;;
11681;SDS011;5897;42.640;23.310;2022-11-24T04:54:55;11.07;;;8.43;;
11681;SDS011;5897;42.640;23.310;2022-11-24T04:57:22;12.50;;;7.88;;
11681;SDS011;5897;42.640;23.310;2022-11-24T04:59:50;11.07;;;7.10;;
11681;SDS011;5897;42.640;23.310;2022-11-24T05:02:18;14.13;;;7.25;;
11681;SDS011;5897;42.640;23.310;2022-11-24T05:04:46;10.20;;;7.22;;
11681;SDS011;5897;42.640;23.310;2022-11-24T05:07:12;10.00;;;6.38;;
11681;SDS011;5897;42.640;23.310;2022-11-24T05:09:39;7.10;;;5.43;;
11681;SDS011;5897;42.640;23.310;2022-11-24T05:12:20;7.97;;;5.97;;
11681;SDS011;5897;42.640;23.310;2022-11-24T05:14:48;10.20;;;6.25;;
11681;SDS011;5897;42.640;23.310;2022-11-24T05:17:15;7.40;;;5.60;;
11681;SDS011;5897;42.640;23.310;2022-11-24T05:19:43;11.23;;;6.57;;
11681;SDS011;5897;42.640;23.310;2022-11-24T05:22:10;16.40;;;11.30;;
11681;SDS011;5897;42.640;23.310;2022-11-24T05:24:37;14.30;;;10.10;;
11681;SDS011;5897;42.640;23.310;2022-11-24T05:27:03;15.05;;;10.00;;
11681;SDS011;5897;42.640;23.310;2022-11-24T05:29:30;17.10;;;11.30;;
11681;SDS011;5897;42.640;23.310;2022-11-24T05:31:57;17.15;;;11.95;;
11681;SDS011;5897;42.640;23.310;2022-11-24T05:34:23;25.30;;;15.13;;
11681;SDS011;5897;42.640;23.310;2022-11-24T05:36:52;32.30;;;14.63;;
11681;SDS011;5897;42.640;23.310;2022-11-24T05:39:19;38.72;;;17.13;;
11681;SDS011;5897;42.640;23.310;2022-11-24T05:41:46;36.55;;;16.42;;
11681;SDS011;5897;42.640;23.310;2022-11-24T05:44:12;35.25;;;16.23;;
11681;SDS011;5897;42.640;23.310;2022-11-24T05:46:39;26.92;;;15.35;;
11681;SDS011;5897;42.640;23.310;2022-11-24T05:49:06;22.65;;;11.68;;
11681;SDS011;5897;42.640;23.310;2022-11-24T05:51:33;16.20;;;8.55;;
11681;SDS011;5897;42.640;23.310;2022-11-24T05:54:01;16.98;;;7.65;;
11681;SDS011;5897;42.640;23.310;2022-11-24T05:56:27;12.13;;;7.28;;
11681;SDS011;5897;42.640;23.310;2022-11-24T05:58:55;9.07;;;6.20;;
11681;SDS011;5897;42.640;23.310;2022-11-24T06:01:21;9.13;;;5.90;;
11681;SDS011;5897;42.640;23.310;2022-11-24T06:03:48;10.13;;;6.70;;
11681;SDS011;5897;42.640;23.310;2022-11-24T06:06:15;8.23;;;5.15;;
11681;SDS011;5897;42.640;23.310;2022-11-24T06:08:42;7.47;;;5.10;;
11681;SDS011;5897;42.640;23.310;2022-11-24T06:11:10;8.32;;;5.25;;
11681;SDS011;5897;42.640;23.310;2022-11-24T06:13:46;9.27;;;5.32;;
11681;SDS011;5897;42.640;23.310;2022-11-24T06:16:13;10.60;;;6.05;;
11681;SDS011;5897;42.640;23.310;2022-11-24T06:18:40;14.63;;;7.28;;
11681;SDS011;5897;42.640;23.310;2022-11-24T06:21:07;13.43;;;6.78;;
11681;SDS011;5897;42.640;23.310;2022-11-24T06:23:34;15.85;;;9.30;;
11681;SDS011;5897;42.640;23.310;2022-11-24T06:26:01;18.83;;;11.20;;
11681;SDS011;5897;42.640;23.310;2022-11-24T06:28:29;15.40;;;8.55;;
11681;SDS011;5897;42.640;23.310;2022-11-24T06:30:58;26.10;;;16.25;;
11681;SDS011;5897;42.640;23.310;2022-11-24T06:33:26;30.00;;;14.70;;
11681;SDS011;5897;42.640;23.310;2022-11-24T06:35:57;19.10;;;10.52;;
11681;SDS011;5897;42.640;23.310;2022-11-24T06:38:26;13.82;;;9.32;;
11681;SDS011;5897;42.640;23.310;2022-11-24T06:40:57;19.15;;;8.90;;
11681;SDS011;5897;42.640;23.310;2022-11-24T06:43:25;16.10;;;9.60;;
11681;SDS011;5897;42.640;23.310;2022-11-24T06:45:53;14.23;;;8.30;;
11681;SDS011;5897;42.640;23.310;2022-11-24T06:48:20;20.55;;;11.90;;
11681;SDS011;5897;42.640;23.310;2022-11-24T06:50:46;23.35;;;14.82;;
11681;SDS011;5897;42.640;23.310;2022-11-24T06:53:13;24.23;;;14.55;;
11681;SDS011;5897;42.640;23.310;2022-11-24T06:55:40;15.30;;;8.68;;
11681;SDS011;5897;42.640;23.310;2022-11-24T06:58:08;22.30;;;12.45;;
11681;SDS011;5897;42.640;23.310;2022-11-24T07:00:37;14.32;;;8.88;;
11681;SDS011;5897;42.640;23.310;2022-11-24T07:03:05;12.65;;;8.18;;
11681;SDS011;5897;42.640;23.310;2022-11-24T07:05:32;14.05;;;8.38;;
11681;SDS011;5897;42.640;23.310;2022-11-24T07:07:59;16.80;;;10.85;;
11681;SDS011;5897;42.640;23.310;2022-11-24T07:10:26;16.67;;;11.75;;
11681;SDS011;5897;42.640;23.310;2022-11-24T07:12:52;24.13;;;13.27;;
11681;SDS011;5897;42.640;23.310;2022-11-24T07:15:19;23.20;;;15.35;;
11681;SDS011;5897;42.640;23.310;2022-11-24T07:17:46;31.77;;;16.02;;
11681;SDS011;5897;42.640;23.310;2022-11-24T07:20:14;26.92;;;16.05;;
11681;SDS011;5897;42.640;23.310;2022-11-24T07:22:41;25.92;;;16.73;;
11681;SDS011;5897;42.640;23.310;2022-11-24T07:25:08;24.20;;;16.27;;
11681;SDS011;5897;42.640;23.310;2022-11-24T07:27:35;21.42;;;15.70;;
11681;SDS011;5897;42.640;23.310;2022-11-24T07:30:02;25.70;;;15.38;;
11681;SDS011;5897;42.640;23.310;2022-11-24T07:32:30;17.13;;;10.90;;
11681;SDS011;5897;42.640;23.310;2022-11-24T07:34:57;16.40;;;9.35;;
11681;SDS011;5897;42.640;23.310;2022-11-24T07:37:25;10.90;;;6.95;;
11681;SDS011;5897;42.640;23.310;2022-11-24T07:39:52;14.25;;;7.10;;
11681;SDS011;5897;42.640;23.310;2022-11-24T07:42:19;15.35;;;7.13;;
11681;SDS011;5897;42.640;23.310;2022-11-24T07:44:46;14.77;;;7.43;;
11681;SDS011;5897;42.640;23.310;2022-11-24T07:47:13;13.50;;;7.68;;
11681;SDS011;5897;42.640;23.310;2022-11-24T07:49:39;12.25;;;8.15;;
11681;SDS011;5897;42.640;23.310;2022-11-24T07:52:06;16.95;;;9.50;;
11681;SDS011;5897;42.640;23.310;2022-11-24T07:54:35;13.50;;;8.57;;
11681;SDS011;5897;42.640;23.310;2022-11-24T07:57:01;14.25;;;8.45;;
11681;SDS011;5897;42.640;23.310;2022-11-24T07:59:28;13.32;;;9.10;;
11681;SDS011;5897;42.640;23.310;2022-11-24T08:01:55;13.80;;;9.50;;
11681;SDS011;5897;42.640;23.310;2022-11-24T08:04:22;15.10;;;9.52;;
11681;SDS011;5897;42.640;23.310;2022-11-24T08:06:50;13.57;;;10.18;;
11681;SDS011;5897;42.640;23.310;2022-11-24T08:09:17;11.65;;;9.50;;
11681;SDS011;5897;42.640;23.310;2022-11-24T08:11:45;10.50;;;8.90;;
11681;SDS011;5897;42.640;23.310;2022-11-24T08:14:12;10.57;;;9.48;;
11681;SDS011;5897;42.640;23.310;2022-11-24T08:16:38;10.55;;;8.73;;
11681;SDS011;5897;42.640;23.310;2022-11-24T08:19:05;11.05;;;8.70;;
11681;SDS011;5897;42.640;23.310;2022-11-24T08:21:32;11.40;;;8.25;;
11681;SDS011;5897;42.640;23.310;2022-11-24T08:23:58;11.35;;;9.45;;
11681;SDS011;5897;42.640;23.310;2022-11-24T08:26:25;12.20;;;9.80;;
11681;SDS011;5897;42.640;23.310;2022-11-24T08:28:54;12.02;;;9.68;;
11681;SDS011;5897;42.640;23.310;2022-11-24T08:31:22;12.65;;;10.70;;
11681;SDS011;5897;42.640;23.310;2022-11-24T08:33:56;14.73;;;11.90;;
11681;SDS011;5897;42.640;23.310;2022-11-24T08:36:23;13.73;;;11.00;;
11681;SDS011;5897;42.640;23.310;2022-11-24T08:38:52;11.70;;;9.55;;
11681;SDS011;5897;42.640;23.310;2022-11-24T08:41:21;16.35;;;10.32;;
11681;SDS011;5897;42.640;23.310;2022-11-24T08:43:48;14.55;;;10.43;;
11681;SDS011;5897;42.640;23.310;2022-11-24T08:46:16;11.50;;;9.40;;
11681;SDS011;5897;42.640;23.310;2022-11-24T08:48:46;12.10;;;9.93;;
11681;SDS011;5897;42.640;23.310;2022-11-24T08:51:14;13.30;;;10.10;;
11681;SDS011;5897;42.640;23.310;2022-11-24T08:53:43;14.20;;;11.00;;
11681;SDS011;5897;42.640;23.310;2022-11-24T08:56:10;13.32;;;10.93;;
11681;SDS011;5897;42.640;23.310;2022-11-24T08:58:38;10.98;;;9.55;;
11681;SDS011;5897;42.640;23.310;2022-11-24T09:01:06;11.43;;;9.23;;
11681;SDS011;5897;42.640;23.310;2022-11-24T09:03:35;9.38;;;7.25;;
11681;SDS011;5897;42.640;23.310;2022-11-24T09:06:03;8.82;;;7.38;;
11681;SDS011;5897;42.640;23.310;2022-11-24T09:08:30;8.00;;;6.55;;
11681;SDS011;5897;42.640;23.310;2022-11-24T09:10:58;11.40;;;7.60;;
11681;SDS011;5897;42.640;23.310;2022-11-24T09:13:26;6.28;;;5.53;;
11681;SDS011;5897;42.640;23.310;2022-11-24T09:15:53;7.75;;;5.53;;
11681;SDS011;5897;42.640;23.310;2022-11-24T09:18:19;4.97;;;4.47;;
11681;SDS011;5897;42.640;23.310;2022-11-24T09:20:48;4.35;;;3.85;;
11681;SDS011;5897;42.640;23.310;2022-11-24T09:23:14;3.70;;;2.78;;
11681;SDS011;5897;42.640;23.310;2022-11-24T09:25:41;2.95;;;2.60;;
11681;SDS011;5897;42.640;23.310;2022-11-24T09:28:08;3.55;;;2.47;;
11681;SDS011;5897;42.640;23.310;2022-11-24T09:30:34;2.05;;;1.95;;
11681;SDS011;5897;42.640;23.310;2022-11-24T09:33:01;2.15;;;1.83;;
11681;SDS011;5897;42.640;23.310;2022-11-24T09:35:28;1.98;;;1.80;;
11681;SDS011;5897;42.640;23.310;2022-11-24T09:37:56;2.22;;;1.83;;
11681;SDS011;5897;42.640;23.310;2022-11-24T09:40:23;1.80;;;1.70;;
11681;SDS011;5897;42.640;23.310;2022-11-24T09:42:52;1.80;;;1.70;;
11681;SDS011;5897;42.640;23.310;2022-11-24T09:45:27;1.80;;;1.70;;
11681;SDS011;5897;42.640;23.310;2022-11-24T09:48:07;4.75;;;3.05;;
11681;SDS011;5897;42.640;23.310;2022-11-24T09:50:37;1.80;;;1.70;;
11681;SDS011;5897;42.640;23.310;2022-11-24T09:53:07;1.67;;;1.55;;
11681;SDS011;5897;42.640;23.310;2022-11-24T09:55:40;1.50;;;1.40;;
11681;SDS011;5897;42.640;23.310;2022-11-24T09:58:30;1.45;;;1.35;;
11681;SDS011;5897;42.640;23.310;2022-11-24T10:01:04;1.20;;;1.10;;
11681;SDS011;5897;42.640;23.310;2022-11-24T10:03:38;1.85;;;1.75;;
11681;SDS011;5897;42.640;23.310;2022-11-24T10:06:11;1.88;;;1.30;;
11681;SDS011;5897;42.640;23.310;2022-11-24T10:08:58;1.50;;;1.40;;
11681;SDS011;5897;42.640;23.310;2022-11-24T10:11:37;2.35;;;1.55;;
11681;SDS011;5897;42.640;23.310;2022-11-24T10:14:19;3.15;;;1.65;;
11681;SDS011;5897;42.640;23.310;2022-11-24T10:17:10;1.60;;;1.50;;
11681;SDS011;5897;42.640;23.310;2022-11-24T10:19:47;2.22;;;2.03;;
11681;SDS011;5897;42.640;23.310;2022-11-24T10:22:22;2.28;;;2.08;;
11681;SDS011;5897;42.640;23.310;2022-11-24T10:25:11;2.20;;;2.00;;
11681;SDS011;5897;42.640;23.310;2022-11-24T10:27:44;1.88;;;1.77;;
11681;SDS011;5897;42.640;23.310;2022-11-24T10:30:15;1.60;;;1.50;;
11681;SDS011;5897;42.640;23.310;2022-11-24T10:32:45;1.73;;;1.60;;
11681;SDS011;5897;42.640;23.310;2022-11-24T10:35:22;2.58;;;2.20;;
11681;SDS011;5897;42.640;23.310;2022-11-24T10:37:56;2.22;;;2.03;;
11681;SDS011;5897;42.640;23.310;2022-11-24T10:40:32;2.63;;;2.10;;
11681;SDS011;5897;42.640;23.310;2022-11-24T10:43:03;2.38;;;2.17;;
11681;SDS011;5897;42.640;23.310;2022-11-24T10:45:34;3.50;;;1.90;;
11681;SDS011;5897;42.640;23.310;2022-11-24T10:48:03;4.05;;;3.25;;
11681;SDS011;5897;42.640;23.310;2022-11-24T10:50:35;2.25;;;2.00;;
11681;SDS011;5897;42.640;23.310;2022-11-24T10:53:07;2.75;;;2.50;;
11681;SDS011;5897;42.640;23.310;2022-11-24T10:56:01;2.42;;;2.22;;
11681;SDS011;5897;42.640;23.310;2022-11-24T10:58:30;2.30;;;2.10;;
11681;SDS011;5897;42.640;23.310;2022-11-24T11:00:59;4.45;;;3.00;;
11681;SDS011;5897;42.640;23.310;2022-11-24T11:03:27;2.85;;;2.55;;
11681;SDS011;5897;42.640;23.310;2022-11-24T11:05:59;2.50;;;2.30;;
11681;SDS011;5897;42.640;23.310;2022-11-24T11:08:28;2.25;;;2.05;;
11681;SDS011;5897;42.640;23.310;2022-11-24T11:13:55;2.30;;;2.10;;
11681;SDS011;5897;42.640;23.310;2022-11-24T11:16:25;2.72;;;2.53;;
11681;SDS011;5897;42.640;23.310;2022-11-24T11:18:57;3.22;;;2.92;;
11681;SDS011;5897;42.640;23.310;2022-11-24T11:21:29;2.88;;;2.67;;
11681;SDS011;5897;42.640;23.310;2022-11-24T11:23:58;3.45;;;3.15;;
11681;SDS011;5897;42.640;23.310;2022-11-24T11:26:31;3.70;;;3.33;;
11681;SDS011;5897;42.640;23.310;2022-11-24T11:29:01;3.60;;;3.08;;
11681;SDS011;5897;42.640;23.310;2022-11-24T11:31:38;4.80;;;4.40;;
11681;SDS011;5897;42.640;23.310;2022-11-24T11:34:11;4.13;;;3.70;;
11681;SDS011;5897;42.640;23.310;2022-11-24T11:36:41;4.70;;;3.33;;
11681;SDS011;5897;42.640;23.310;2022-11-24T11:39:14;3.85;;;3.55;;
11681;SDS011;5897;42.640;23.310;2022-11-24T11:41:49;4.28;;;3.83;;
11681;SDS011;5897;42.640;23.310;2022-11-24T11:44:25;4.50;;;3.95;;
11681;SDS011;5897;42.640;23.310;2022-11-24T11:46:57;7.43;;;4.88;;
11681;SDS011;5897;42.640;23.310;2022-11-24T11:49:25;5.65;;;4.40;;
11681;SDS011;5897;42.640;23.310;2022-11-24T11:51:57;7.78;;;4.40;;
11681;SDS011;5897;42.640;23.310;2022-11-24T11:54:50;4.60;;;4.20;;
11681;SDS011;5897;42.640;23.310;2022-11-24T11:57:34;5.25;;;4.05;;
11681;SDS011;5897;42.640;23.310;2022-11-24T12:00:07;4.28;;;3.88;;
11681;SDS011;5897;42.640;23.310;2022-11-24T12:02:47;4.30;;;3.90;;
11681;SDS011;5897;42.640;23.310;2022-11-24T12:05:27;3.80;;;3.40;;
11681;SDS011;5897;42.640;23.310;2022-11-24T12:08:06;4.05;;;3.58;;
11681;SDS011;5897;42.640;23.310;2022-11-24T12:10:45;4.70;;;4.18;;
11681;SDS011;5897;42.640;23.310;2022-11-24T12:13:30;7.45;;;5.38;;
11681;SDS011;5897;42.640;23.310;2022-11-24T12:16:10;5.45;;;4.50;;
11681;SDS011;5897;42.640;23.310;2022-11-24T12:18:48;4.57;;;4.15;;
11681;SDS011;5897;42.640;23.310;2022-11-24T12:21:23;4.72;;;3.78;;
11681;SDS011;5897;42.640;23.310;2022-11-24T12:23:58;4.10;;;3.47;;
11681;SDS011;5897;42.640;23.310;2022-11-24T12:26:34;3.75;;;3.45;;
11681;SDS011;5897;42.640;23.310;2022-11-24T12:29:15;4.22;;;3.60;;
11681;SDS011;5897;42.640;23.310;2022-11-24T12:31:55;4.13;;;3.25;;
11681;SDS011;5897;42.640;23.310;2022-11-24T12:34:35;3.78;;;3.47;;
11681;SDS011;5897;42.640;23.310;2022-11-24T12:37:15;4.13;;;2.80;;
11681;SDS011;5897;42.640;23.310;2022-11-24T12:39:54;3.45;;;2.63;;
11681;SDS011;5897;42.640;23.310;2022-11-24T12:42:29;4.53;;;3.30;;
11681;SDS011;5897;42.640;23.310;2022-11-24T12:45:14;2.90;;;2.70;;
11681;SDS011;5897;42.640;23.310;2022-11-24T12:47:49;4.55;;;3.70;;
11681;SDS011;5897;42.640;23.310;2022-11-24T12:50:28;3.95;;;3.40;;
11681;SDS011;5897;42.640;23.310;2022-11-24T12:52:58;3.50;;;2.83;;
11681;SDS011;5897;42.640;23.310;2022-11-24T12:55:29;3.55;;;3.25;;
11681;SDS011;5897;42.640;23.310;2022-11-24T12:58:02;3.78;;;3.35;;
11681;SDS011;5897;42.640;23.310;2022-11-24T13:00:39;3.40;;;3.03;;
11681;SDS011;5897;42.640;23.310;2022-11-24T13:03:19;5.40;;;3.70;;
11681;SDS011;5897;42.640;23.310;2022-11-24T13:05:59;4.20;;;3.67;;
11681;SDS011;5897;42.640;23.310;2022-11-24T13:08:29;4.80;;;3.78;;
11681;SDS011;5897;42.640;23.310;2022-11-24T13:13:56;4.93;;;3.53;;
11681;SDS011;5897;42.640;23.310;2022-11-24T13:16:25;3.67;;;3.38;;
11681;SDS011;5897;42.640;23.310;2022-11-24T13:18:53;4.20;;;3.80;;
11681;SDS011;5897;42.640;23.310;2022-11-24T13:24:27;6.00;;;4.55;;
11681;SDS011;5897;42.640;23.310;2022-11-24T13:27:17;5.35;;;4.85;;
11681;SDS011;5897;42.640;23.310;2022-11-24T13:29:52;5.03;;;4.53;;
11681;SDS011;5897;42.640;23.310;2022-11-24T13:35:16;5.70;;;5.05;;
11681;SDS011;5897;42.640;23.310;2022-11-24T13:37:44;4.18;;;3.78;;
11681;SDS011;5897;42.640;23.310;2022-11-24T13:43:21;3.40;;;3.10;;
11681;SDS011;5897;42.640;23.310;2022-11-24T13:45:49;3.60;;;3.30;;
11681;SDS011;5897;42.640;23.310;2022-11-24T13:51:25;3.92;;;3.17;;
11681;SDS011;5897;42.640;23.310;2022-11-24T13:53:52;2.88;;;2.67;;
11681;SDS011;5897;42.640;23.310;2022-11-24T13:56:28;3.20;;;2.90;;
11681;SDS011;5897;42.640;23.310;2022-11-24T13:58:57;2.65;;;2.45;;
11681;SDS011;5897;42.640;23.310;2022-11-24T14:01:26;3.50;;;3.20;;
11681;SDS011;5897;42.640;23.310;2022-11-24T14:04:00;2.63;;;2.43;;
11681;SDS011;5897;42.640;23.310;2022-11-24T14:06:34;3.00;;;2.80;;
11681;SDS011;5897;42.640;23.310;2022-11-24T14:09:11;1.92;;;1.80;;
11681;SDS011;5897;42.640;23.310;2022-11-24T14:11:45;2.00;;;1.80;;
11681;SDS011;5897;42.640;23.310;2022-11-24T14:14:23;1.58;;;1.48;;
11681;SDS011;5897;42.640;23.310;2022-11-24T14:17:04;1.60;;;1.50;;
11681;SDS011;5897;42.640;23.310;2022-11-24T14:19:32;1.83;;;1.73;;
11681;SDS011;5897;42.640;23.310;2022-11-24T14:22:00;1.80;;;1.70;;
11681;SDS011;5897;42.640;23.310;2022-11-24T14:24:29;1.60;;;1.50;;
11681;SDS011;5897;42.640;23.310;2022-11-24T14:26:57;1.80;;;1.70;;
11681;SDS011;5897;42.640;23.310;2022-11-24T14:29:24;2.05;;;1.85;;
11681;SDS011;5897;42.640;23.310;2022-11-24T14:31:57;2.03;;;1.80;;
11681;SDS011;5897;42.640;23.310;2022-11-24T14:34:26;1.60;;;1.50;;
11681;SDS011;5897;42.640;23.310;2022-11-24T14:36:57;1.73;;;1.40;;
11681;SDS011;5897;42.640;23.310;2022-11-24T14:39:27;2.20;;;1.85;;
11681;SDS011;5897;42.640;23.310;2022-11-24T14:41:56;2.20;;;1.50;;
11681;SDS011;5897;42.640;23.310;2022-11-24T14:44:27;1.83;;;1.70;;
11681;SDS011;5897;42.640;23.310;2022-11-24T14:47:00;1.92;;;1.38;;
11681;SDS011;5897;42.640;23.310;2022-11-24T14:49:28;2.10;;;1.70;;
11681;SDS011;5897;42.640;23.310;2022-11-24T14:51:57;1.90;;;1.63;;
11681;SDS011;5897;42.640;23.310;2022-11-24T14:54:28;2.55;;;2.10;;
11681;SDS011;5897;42.640;23.310;2022-11-24T14:56:57;1.55;;;1.45;;
11681;SDS011;5897;42.640;23.310;2022-11-24T14:59:26;1.60;;;1.50;;
11681;SDS011;5897;42.640;23.310;2022-11-24T15:01:54;1.55;;;1.45;;
11681;SDS011;5897;42.640;23.310;2022-11-24T15:04:22;1.80;;;1.70;;
11681;SDS011;5897;42.640;23.310;2022-11-24T15:07:01;1.60;;;1.50;;
11681;SDS011;5897;42.640;23.310;2022-11-24T15:09:31;4.05;;;1.98;;
11681;SDS011;5897;42.640;23.310;2022-11-24T15:12:03;1.90;;;1.67;;
11681;SDS011;5897;42.640;23.310;2022-11-24T15:14:47;2.30;;;2.10;;
11681;SDS011;5897;42.640;23.310;2022-11-24T15:17:16;2.40;;;2.20;;